Flight Track Log - Related Links

Times and Time Zones

All times are in EDT time to prevent confusion due to time zone crossing. See the PDT4236 flight status page for this flight to view local times or setup timezone preferences in your user account.

Time Position Orientation Groundspeed Altitude Reporting Facility
EDT Latitude Longitude Course Direction KTS MPH feet Rate Location/Type
Fri 02:39:48 PM 35.1956 -80.9558 340° North 134 154 1,300  Level Atlanta Center
Fri 02:40:25 PM 35.1856 -80.9767 240° Southwest 136 157 2,000 1,096 Climbing Atlanta Center
Fri 02:41:32 PM 35.1786 -81.0328 261° West 158 182 3,200 1,172 Climbing Atlanta Center
Fri 02:42:00 PM 35.3658 -81.0167 North  Level FlightAware Approximate
Fri 02:42:33 PM 35.1903 -81.0856 285° West 163 188 4,500  Level Atlanta Center
Fri 02:43:00 PM 35.4332 -81.0428 347° North  Level FlightAware Approximate
Fri 02:43:28 PM 35.1997 -81.1336 284° West 166 191 5,700  Level Atlanta Center
Fri 02:44:00 PM 35.5023 -81.0626 347° North  Level FlightAware Approximate
Fri 02:44:20 PM 35.2114 -81.1789 288° West 166 191 6,700  Level Atlanta Center
Fri 02:44:41 PM 35.2222 -81.1989 304° West 177 204 7,300 1,371 Climbing Atlanta Center
Fri 02:45:00 PM 35.5660 -81.0978 340° North  Level FlightAware Approximate
Fri 02:45:30 PM 35.2642 -81.2103 347° North 181 208 8,300  Level Atlanta Center
Fri 02:46:20 PM 35.3119 -81.2033 North 186 214 9,100 806 Climbing Atlanta Center
Fri 02:46:37 PM 35.3181 -81.1981 35° Northeast 190 219 9,200 600 Climbing Atlanta Center
Fri 02:47:20 PM 35.3578 -81.1917 North 200 230 9,700 757 Climbing Atlanta Center
Fri 02:48:20 PM 35.4136 -81.1719 16° North 214 246 10,500 800 Climbing Atlanta Center
Fri 02:49:20 PM 35.4694 -81.1522 16° North 214 246 11,300 800 Climbing Atlanta Center
Fri 02:50:20 PM 35.5253 -81.1322 16° North 207 238 12,100 800 Climbing Atlanta Center
Fri 02:51:20 PM 35.5831 -81.1097 18° North 207 238 12,900 750 Climbing Atlanta Center
Fri 02:52:20 PM 35.6419 -81.1306 344° North 207 238 13,600 750 Climbing Atlanta Center
Fri 02:53:20 PM 35.6947 -81.1544 340° North 207 238 14,400 700 Climbing Atlanta Center
Fri 02:54:20 PM 35.7517 -81.1756 343° North 207 238 15,000 650 Climbing Atlanta Center
Fri 02:55:20 PM 35.8064 -81.2017 339° North 212 244 15,700 650 Climbing Atlanta Center
Fri 02:56:20 PM 35.8572 -81.2306 335° Northwest 202 232 16,300 600 Climbing Atlanta Center
Fri 02:57:20 PM 35.9119 -81.2569 339° North 202 232 16,900 650 Climbing Atlanta Center
Fri 02:58:20 PM 35.9606 -81.2836 336° Northwest 197 227 17,600 600 Climbing Atlanta Center
Fri 02:59:20 PM 36.0133 -81.3100 338° Northwest 197 227 18,100 450 Climbing Atlanta Center
Fri 03:00:20 PM 36.0661 -81.3364 338° Northwest 197 227 18,500 450 Climbing Atlanta Center
Fri 03:01:20 PM 36.1189 -81.3631 338° Northwest 197 227 19,000 400 Climbing Atlanta Center
Fri 03:02:20 PM 36.1697 -81.4025 328° Northwest 197 227 19,300 400 Climbing Atlanta Center
Fri 03:03:20 PM 36.2142 -81.4344 330° Northwest 207 238 19,800 500 Climbing Atlanta Center
Fri 03:04:20 PM 36.2650 -81.4714 330° Northwest 207 238 20,300 450 Climbing Atlanta Center
Fri 03:05:20 PM 36.3117 -81.5058 329° Northwest 207 238 20,700 400 Climbing Atlanta Center
Fri 03:06:20 PM 36.3603 -81.5431 328° Northwest 207 238 21,100 350 Climbing Atlanta Center
Fri 03:07:20 PM 36.4031 -81.5883 320° Northwest 202 232 21,400 300 Climbing Atlanta Center
Fri 03:08:20 PM 36.4475 -81.6308 322° Northwest 207 238 21,700 300 Climbing Atlanta Center
Fri 03:09:20 PM 36.5006 -81.6781 324° Northwest 207 238 22,000 150 Climbing Atlanta Center
Fri 03:10:20 PM 36.5536 -81.7206 327° Northwest 218 251 22,000  Level Atlanta Center
Fri 03:11:20 PM 36.6167 -81.7444 343° North 223 257 22,000  Level Atlanta Center
Fri 03:12:20 PM 36.6797 -81.7764 338° Northwest 235 270 22,000  Level Atlanta Center
Fri 03:13:20 PM 36.7469 -81.8056 341° North 240 276 22,000  Level Atlanta Center
Fri 03:14:20 PM 36.8119 -81.8297 343° North 245 282 22,000  Level Atlanta Center
Fri 03:15:59 PM 36.9231 -81.8617 347° North 248 285 22,000  Level Indianapolis Center
Fri 03:17:01 PM 36.9914 -81.8881 343° North 254 292 22,000  Level Indianapolis Center
Fri 03:18:03 PM 37.0581 -81.9100 345° North 249 287 22,000  Level Indianapolis Center
Fri 03:19:05 PM 37.1253 -81.9333 345° North 250 288 22,000 -194 Level Indianapolis Center
Fri 03:20:07 PM 37.1931 -81.9578 344° North 252 290 21,600 -871 Descending Indianapolis Center
Fri 03:21:09 PM 37.2814 -81.9928 343° North 280 322 20,200 -1,306 Descending Indianapolis Center
Fri 03:22:11 PM 37.3628 -82.0200 345° North 296 341 18,900 -1,065 Descending Indianapolis Center
Fri 03:23:13 PM 37.4358 -82.0539 340° North 286 329 18,000 -1,065 Descending Indianapolis Center
Fri 03:24:15 PM 37.4964 -82.0836 339° North 242 278 16,700 -1,306 Descending Indianapolis Center
Fri 03:25:17 PM 37.5553 -82.1175 335° Northwest 233 268 15,300 -1,452 Descending Indianapolis Center
Fri 03:26:19 PM 37.6214 -82.1528 337° Northwest 222 255 13,700 -1,355 Descending Indianapolis Center
Fri 03:27:21 PM 37.6800 -82.1850 336° Northwest 228 262 12,500 -774 Descending Indianapolis Center
Fri 03:28:23 PM 37.7486 -82.2236 336° Northwest 256 295 12,100 -194 Descending Indianapolis Center
Fri 03:29:25 PM 37.8175 -82.2614 337° Northwest 267 307 12,100  Level Indianapolis Center
Fri 03:30:28 PM 37.8861 -82.2978 337° Northwest 267 307 12,100  Level Indianapolis Center
Fri 03:31:30 PM 37.9619 -82.3386 337° Northwest 257 296 12,100 -194 Level Indianapolis Center
Fri 03:32:32 PM 38.0136 -82.3639 339° North 204 235 11,700 -1,790 Descending Indianapolis Center
Fri 03:33:34 PM 38.0733 -82.3956 337° Northwest 226 260 8,400 -2,806 Descending Indianapolis Center
Fri 03:34:36 PM 38.1383 -82.4319 336° Northwest 264 304 5,900 -2,323 Descending Indianapolis Center
Fri 03:35:38 PM 38.2178 -82.4728 338° Northwest 260 299 3,600 -2,226 Descending Indianapolis Center

Login

Don't have an account? Register now (free) for customized features, flight alerts, and more!